sensor_id;sensor_type;location;lat;lon;timestamp;pressure;altitude;pressure_sealevel;temperature;humidity
30708;BME280;17458;48.958;8.284;2024-03-22T00:00:41;101089.88;;;12.47;67.38
30708;BME280;17458;48.958;8.284;2024-03-22T00:03:25;101092.38;;;12.44;67.77
30708;BME280;17458;48.958;8.284;2024-03-22T00:06:09;101097.44;;;12.23;68.27
30708;BME280;17458;48.958;8.284;2024-03-22T00:08:53;101094.38;;;12.16;68.90
30708;BME280;17458;48.958;8.284;2024-03-22T00:11:40;101096.44;;;12.21;68.59
30708;BME280;17458;48.958;8.284;2024-03-22T00:14:24;101095.94;;;12.12;68.75
30708;BME280;17458;48.958;8.284;2024-03-22T00:17:08;101096.13;;;12.15;69.15
30708;BME280;17458;48.958;8.284;2024-03-22T00:19:52;101081.78;;;12.13;69.29
30708;BME280;17458;48.958;8.284;2024-03-22T00:22:36;101076.97;;;12.06;69.66
30708;BME280;17458;48.958;8.284;2024-03-22T00:25:20;101060.31;;;12.10;69.42
30708;BME280;17458;48.958;8.284;2024-03-22T00:28:04;101068.91;;;12.04;68.90
30708;BME280;17458;48.958;8.284;2024-03-22T00:30:47;101065.16;;;12.01;69.08
30708;BME280;17458;48.958;8.284;2024-03-22T00:33:31;101067.63;;;11.98;69.54
30708;BME280;17458;48.958;8.284;2024-03-22T00:36:15;101059.75;;;11.99;69.06
30708;BME280;17458;48.958;8.284;2024-03-22T00:38:59;101049.66;;;11.94;69.23
30708;BME280;17458;48.958;8.284;2024-03-22T00:41:43;101044.19;;;11.91;69.64
30708;BME280;17458;48.958;8.284;2024-03-22T00:44:27;101044.25;;;11.76;70.81
30708;BME280;17458;48.958;8.284;2024-03-22T00:47:11;101040.66;;;11.76;70.49
30708;BME280;17458;48.958;8.284;2024-03-22T00:49:55;101040.84;;;11.79;70.36
30708;BME280;17458;48.958;8.284;2024-03-22T00:52:39;101038.63;;;11.71;70.72
30708;BME280;17458;48.958;8.284;2024-03-22T00:55:23;101038.53;;;11.70;70.63
30708;BME280;17458;48.958;8.284;2024-03-22T00:58:07;101036.28;;;11.61;71.10
30708;BME280;17458;48.958;8.284;2024-03-22T01:00:51;101036.94;;;11.57;71.03
30708;BME280;17458;48.958;8.284;2024-03-22T01:03:35;101034.53;;;11.62;71.03
30708;BME280;17458;48.958;8.284;2024-03-22T01:06:19;101022.38;;;11.51;71.44
30708;BME280;17458;48.958;8.284;2024-03-22T01:09:08;101025.94;;;11.51;71.25
30708;BME280;17458;48.958;8.284;2024-03-22T01:11:52;101021.47;;;11.50;71.03
30708;BME280;17458;48.958;8.284;2024-03-22T01:14:36;101024.50;;;11.42;71.28
30708;BME280;17458;48.958;8.284;2024-03-22T01:17:20;101020.59;;;11.35;71.61
30708;BME280;17458;48.958;8.284;2024-03-22T01:20:04;101023.00;;;11.16;72.80
30708;BME280;17458;48.958;8.284;2024-03-22T01:22:49;101027.00;;;11.24;72.50
30708;BME280;17458;48.958;8.284;2024-03-22T01:25:33;101025.28;;;11.24;72.22
30708;BME280;17458;48.958;8.284;2024-03-22T01:28:17;101018.97;;;11.22;72.12
30708;BME280;17458;48.958;8.284;2024-03-22T01:31:01;101013.38;;;11.18;72.05
30708;BME280;17458;48.958;8.284;2024-03-22T01:33:45;101012.91;;;11.10;72.46
30708;BME280;17458;48.958;8.284;2024-03-22T01:36:29;101004.22;;;11.13;72.33
30708;BME280;17458;48.958;8.284;2024-03-22T01:39:13;101002.22;;;11.09;72.56
30708;BME280;17458;48.958;8.284;2024-03-22T01:41:58;100999.38;;;11.06;72.62
30708;BME280;17458;48.958;8.284;2024-03-22T01:44:42;101001.22;;;11.07;72.38
30708;BME280;17458;48.958;8.284;2024-03-22T01:47:26;100997.25;;;11.15;72.05
30708;BME280;17458;48.958;8.284;2024-03-22T01:50:10;100994.59;;;11.15;72.23
30708;BME280;17458;48.958;8.284;2024-03-22T01:52:56;100993.06;;;11.04;72.62
30708;BME280;17458;48.958;8.284;2024-03-22T01:55:40;100995.06;;;11.08;72.76
30708;BME280;17458;48.958;8.284;2024-03-22T01:58:24;100999.47;;;11.07;72.41
30708;BME280;17458;48.958;8.284;2024-03-22T02:01:08;100995.44;;;10.99;73.02
30708;BME280;17458;48.958;8.284;2024-03-22T02:03:52;100976.28;;;11.05;72.76
30708;BME280;17458;48.958;8.284;2024-03-22T02:06:36;100979.88;;;11.05;72.66
30708;BME280;17458;48.958;8.284;2024-03-22T02:09:20;100977.19;;;11.05;72.63
30708;BME280;17458;48.958;8.284;2024-03-22T02:12:08;100981.69;;;11.06;73.33
30708;BME280;17458;48.958;8.284;2024-03-22T02:14:52;100974.88;;;11.11;72.77
30708;BME280;17458;48.958;8.284;2024-03-22T02:17:37;100984.03;;;11.16;72.85
30708;BME280;17458;48.958;8.284;2024-03-22T02:20:20;100981.75;;;11.22;72.98
30708;BME280;17458;48.958;8.284;2024-03-22T02:23:04;100985.56;;;11.27;73.05
30708;BME280;17458;48.958;8.284;2024-03-22T02:25:48;100979.78;;;11.34;73.22
30708;BME280;17458;48.958;8.284;2024-03-22T02:28:32;100980.28;;;11.44;72.76
30708;BME280;17458;48.958;8.284;2024-03-22T02:31:16;100982.22;;;11.46;72.62
30708;BME280;17458;48.958;8.284;2024-03-22T02:34:00;100979.13;;;11.55;72.79
30708;BME280;17458;48.958;8.284;2024-03-22T02:36:45;100970.44;;;11.57;72.71
30708;BME280;17458;48.958;8.284;2024-03-22T02:39:29;100961.06;;;11.64;72.83
30708;BME280;17458;48.958;8.284;2024-03-22T02:42:13;100957.34;;;11.77;72.53
30708;BME280;17458;48.958;8.284;2024-03-22T02:44:57;100957.50;;;11.80;72.84
30708;BME280;17458;48.958;8.284;2024-03-22T02:47:41;100958.34;;;11.79;72.73
30708;BME280;17458;48.958;8.284;2024-03-22T02:50:25;100957.94;;;11.87;72.27
30708;BME280;17458;48.958;8.284;2024-03-22T02:53:09;100951.03;;;11.91;72.34
30708;BME280;17458;48.958;8.284;2024-03-22T02:55:53;100963.25;;;11.87;72.44
30708;BME280;17458;48.958;8.284;2024-03-22T02:58:37;100957.34;;;11.77;72.54
30708;BME280;17458;48.958;8.284;2024-03-22T03:01:21;100960.31;;;11.83;72.46
30708;BME280;17458;48.958;8.284;2024-03-22T03:04:05;100968.13;;;11.80;72.41
30708;BME280;17458;48.958;8.284;2024-03-22T03:06:48;100959.50;;;11.84;71.85
30708;BME280;17458;48.958;8.284;2024-03-22T03:09:32;100958.19;;;11.92;71.57
30708;BME280;17458;48.958;8.284;2024-03-22T03:12:16;100949.03;;;11.87;71.85
30708;BME280;17458;48.958;8.284;2024-03-22T03:15:00;100954.00;;;11.64;72.44
30708;BME280;17458;48.958;8.284;2024-03-22T03:17:44;100957.78;;;11.53;72.93
30708;BME280;17458;48.958;8.284;2024-03-22T03:20:28;100952.47;;;11.69;72.43
30708;BME280;17458;48.958;8.284;2024-03-22T03:23:12;100960.44;;;11.69;72.55
30708;BME280;17458;48.958;8.284;2024-03-22T03:25:56;100957.13;;;11.73;72.25
30708;BME280;17458;48.958;8.284;2024-03-22T03:28:40;100954.84;;;11.80;72.17
30708;BME280;17458;48.958;8.284;2024-03-22T03:31:23;100954.00;;;11.81;71.69
30708;BME280;17458;48.958;8.284;2024-03-22T03:34:07;100943.84;;;11.73;71.82
30708;BME280;17458;48.958;8.284;2024-03-22T03:36:51;100949.97;;;11.72;72.26
30708;BME280;17458;48.958;8.284;2024-03-22T03:39:35;100936.16;;;11.78;72.33
30708;BME280;17458;48.958;8.284;2024-03-22T03:42:19;100934.47;;;11.80;71.95
30708;BME280;17458;48.958;8.284;2024-03-22T03:45:03;100929.41;;;11.85;71.99
30708;BME280;17458;48.958;8.284;2024-03-22T03:47:47;100936.53;;;11.86;72.07
30708;BME280;17458;48.958;8.284;2024-03-22T03:50:31;100932.06;;;11.85;71.60
30708;BME280;17458;48.958;8.284;2024-03-22T03:53:15;100931.41;;;11.89;71.90
30708;BME280;17458;48.958;8.284;2024-03-22T03:55:59;100932.41;;;11.91;71.81
30708;BME280;17458;48.958;8.284;2024-03-22T03:58:45;100934.38;;;11.95;71.74
30708;BME280;17458;48.958;8.284;2024-03-22T04:01:29;100927.72;;;11.87;71.76
30708;BME280;17458;48.958;8.284;2024-03-22T04:04:13;100919.84;;;11.88;71.92
30708;BME280;17458;48.958;8.284;2024-03-22T04:06:57;100920.09;;;11.93;71.54
30708;BME280;17458;48.958;8.284;2024-03-22T04:09:41;100920.47;;;12.00;71.39
30708;BME280;17458;48.958;8.284;2024-03-22T04:12:26;100926.16;;;12.06;71.31
30708;BME280;17458;48.958;8.284;2024-03-22T04:15:10;100928.13;;;12.11;71.39
30708;BME280;17458;48.958;8.284;2024-03-22T04:17:56;100924.50;;;12.26;70.94
30708;BME280;17458;48.958;8.284;2024-03-22T04:20:40;100921.69;;;12.23;70.95
30708;BME280;17458;48.958;8.284;2024-03-22T04:23:24;100932.25;;;12.22;70.56
30708;BME280;17458;48.958;8.284;2024-03-22T04:26:08;100924.88;;;12.16;70.82
30708;BME280;17458;48.958;8.284;2024-03-22T04:28:52;100924.03;;;12.17;70.92
30708;BME280;17458;48.958;8.284;2024-03-22T04:31:36;100920.03;;;12.09;71.21
30708;BME280;17458;48.958;8.284;2024-03-22T04:34:20;100921.97;;;12.12;71.04
30708;BME280;17458;48.958;8.284;2024-03-22T04:37:04;100919.81;;;12.04;71.21
30708;BME280;17458;48.958;8.284;2024-03-22T04:39:48;100919.13;;;12.08;71.05
30708;BME280;17458;48.958;8.284;2024-03-22T04:42:32;100922.31;;;12.01;70.87
30708;BME280;17458;48.958;8.284;2024-03-22T04:45:16;100921.97;;;12.12;70.53
30708;BME280;17458;48.958;8.284;2024-03-22T04:48:04;100922.78;;;12.11;70.52
30708;BME280;17458;48.958;8.284;2024-03-22T04:50:51;100928.19;;;12.12;70.97
30708;BME280;17458;48.958;8.284;2024-03-22T04:53:35;100919.47;;;12.15;71.01
30708;BME280;17458;48.958;8.284;2024-03-22T04:56:20;100923.88;;;12.14;71.10
30708;BME280;17458;48.958;8.284;2024-03-22T04:59:03;100914.31;;;12.18;70.63
30708;BME280;17458;48.958;8.284;2024-03-22T05:01:47;100915.88;;;12.14;71.28
30708;BME280;17458;48.958;8.284;2024-03-22T05:04:31;100905.16;;;12.13;71.39
30708;BME280;17458;48.958;8.284;2024-03-22T05:07:15;100908.72;;;12.13;71.67
30708;BME280;17458;48.958;8.284;2024-03-22T05:09:59;100913.88;;;12.10;71.77
30708;BME280;17458;48.958;8.284;2024-03-22T05:12:43;100903.09;;;12.07;72.16
30708;BME280;17458;48.958;8.284;2024-03-22T05:15:27;100902.50;;;11.96;72.99
30708;BME280;17458;48.958;8.284;2024-03-22T05:18:11;100899.56;;;12.08;72.63
30708;BME280;17458;48.958;8.284;2024-03-22T05:20:55;100899.53;;;12.06;72.87
30708;BME280;17458;48.958;8.284;2024-03-22T05:23:39;100894.19;;;12.06;73.38
30708;BME280;17458;48.958;8.284;2024-03-22T05:26:23;100895.75;;;12.19;72.66
30708;BME280;17458;48.958;8.284;2024-03-22T05:29:07;100895.88;;;12.22;72.48
30708;BME280;17458;48.958;8.284;2024-03-22T05:31:51;100891.81;;;12.29;72.52
30708;BME280;17458;48.958;8.284;2024-03-22T05:34:35;100890.13;;;12.31;72.28
30708;BME280;17458;48.958;8.284;2024-03-22T05:37:20;100891.72;;;12.27;71.99
30708;BME280;17458;48.958;8.284;2024-03-22T05:40:05;100882.06;;;12.29;71.86
30708;BME280;17458;48.958;8.284;2024-03-22T05:42:50;100886.22;;;12.24;71.81
30708;BME280;17458;48.958;8.284;2024-03-22T05:45:33;100889.84;;;12.08;71.31
30708;BME280;17458;48.958;8.284;2024-03-22T05:48:18;100880.09;;;12.09;71.80
30708;BME280;17458;48.958;8.284;2024-03-22T05:51:02;100880.75;;;12.21;71.04
30708;BME280;17458;48.958;8.284;2024-03-22T05:53:46;100877.13;;;12.37;70.22
30708;BME280;17458;48.958;8.284;2024-03-22T05:56:29;100875.44;;;12.39;70.17
30708;BME280;17458;48.958;8.284;2024-03-22T05:59:13;100872.50;;;12.33;70.84
30708;BME280;17458;48.958;8.284;2024-03-22T06:01:57;100866.72;;;12.41;70.60
30708;BME280;17458;48.958;8.284;2024-03-22T06:04:42;100869.22;;;12.38;70.58
30708;BME280;17458;48.958;8.284;2024-03-22T06:07:26;100877.91;;;12.52;70.33
30708;BME280;17458;48.958;8.284;2024-03-22T06:10:10;100877.81;;;12.51;70.22
30708;BME280;17458;48.958;8.284;2024-03-22T06:12:54;100882.75;;;12.78;69.15
30708;BME280;17458;48.958;8.284;2024-03-22T06:15:38;100878.97;;;12.73;68.98
30708;BME280;17458;48.958;8.284;2024-03-22T06:18:22;100878.50;;;12.82;69.14
30708;BME280;17458;48.958;8.284;2024-03-22T06:21:06;100876.59;;;12.97;68.41
30708;BME280;17458;48.958;8.284;2024-03-22T06:23:51;100879.56;;;13.03;68.65
30708;BME280;17458;48.958;8.284;2024-03-22T06:26:35;100883.34;;;13.08;68.26
30708;BME280;17458;48.958;8.284;2024-03-22T06:29:20;100878.25;;;13.13;68.26
30708;BME280;17458;48.958;8.284;2024-03-22T06:32:04;100875.44;;;13.10;68.04
30708;BME280;17458;48.958;8.284;2024-03-22T06:34:48;100876.41;;;13.12;68.34
30708;BME280;17458;48.958;8.284;2024-03-22T06:37:32;100867.00;;;13.19;67.86
30708;BME280;17458;48.958;8.284;2024-03-22T06:40:16;100861.69;;;13.19;68.03
30708;BME280;17458;48.958;8.284;2024-03-22T06:43:00;100858.94;;;13.17;68.20
30708;BME280;17458;48.958;8.284;2024-03-22T06:45:45;100859.00;;;13.19;67.97
30708;BME280;17458;48.958;8.284;2024-03-22T06:48:29;100852.94;;;13.23;67.80
30708;BME280;17458;48.958;8.284;2024-03-22T06:51:13;100843.06;;;13.39;67.28
30708;BME280;17458;48.958;8.284;2024-03-22T06:53:57;100846.09;;;13.66;66.76
30708;BME280;17458;48.958;8.284;2024-03-22T06:56:41;100845.19;;;13.66;66.29
30708;BME280;17458;48.958;8.284;2024-03-22T06:59:25;100837.59;;;13.75;66.09
30708;BME280;17458;48.958;8.284;2024-03-22T07:02:09;100852.88;;;13.98;65.70
30708;BME280;17458;48.958;8.284;2024-03-22T07:04:53;100843.75;;;13.93;66.12
30708;BME280;17458;48.958;8.284;2024-03-22T07:07:37;100831.66;;;14.01;65.82
30708;BME280;17458;48.958;8.284;2024-03-22T07:10:22;100838.75;;;14.01;65.74
30708;BME280;17458;48.958;8.284;2024-03-22T07:13:07;100840.53;;;13.81;66.35
30708;BME280;17458;48.958;8.284;2024-03-22T07:15:51;100845.84;;;14.00;65.39
30708;BME280;17458;48.958;8.284;2024-03-22T07:18:35;100847.56;;;13.79;66.25
30708;BME280;17458;48.958;8.284;2024-03-22T07:21:20;100846.00;;;14.24;65.63
30708;BME280;17458;48.958;8.284;2024-03-22T07:24:05;100839.50;;;14.17;65.67
30708;BME280;17458;48.958;8.284;2024-03-22T07:26:48;100840.28;;;14.57;64.55
30708;BME280;17458;48.958;8.284;2024-03-22T07:29:32;100841.50;;;14.65;64.19
30708;BME280;17458;48.958;8.284;2024-03-22T07:32:16;100840.25;;;14.77;64.34
30708;BME280;17458;48.958;8.284;2024-03-22T07:35:00;100827.78;;;14.78;63.36
30708;BME280;17458;48.958;8.284;2024-03-22T07:37:44;100829.75;;;15.04;63.08
30708;BME280;17458;48.958;8.284;2024-03-22T07:40:28;100832.09;;;15.41;62.34
30708;BME280;17458;48.958;8.284;2024-03-22T07:43:12;100832.78;;;15.58;61.91
30708;BME280;17458;48.958;8.284;2024-03-22T07:45:58;100831.81;;;15.56;61.60
30708;BME280;17458;48.958;8.284;2024-03-22T07:48:42;100832.91;;;15.63;62.04
30708;BME280;17458;48.958;8.284;2024-03-22T07:51:26;100830.25;;;16.12;60.28
30708;BME280;17458;48.958;8.284;2024-03-22T07:54:10;100824.31;;;16.20;58.99
30708;BME280;17458;48.958;8.284;2024-03-22T07:56:54;100823.88;;;16.34;59.12
30708;BME280;17458;48.958;8.284;2024-03-22T07:59:38;100825.81;;;16.38;59.50
30708;BME280;17458;48.958;8.284;2024-03-22T08:02:22;100813.38;;;16.40;58.92
30708;BME280;17458;48.958;8.284;2024-03-22T08:05:06;100812.91;;;16.53;59.31
30708;BME280;17458;48.958;8.284;2024-03-22T08:07:51;100816.53;;;16.28;58.82
30708;BME280;17458;48.958;8.284;2024-03-22T08:10:35;100813.03;;;16.30;58.69
30708;BME280;17458;48.958;8.284;2024-03-22T08:13:19;100810.47;;;16.87;58.25
30708;BME280;17458;48.958;8.284;2024-03-22T08:16:03;100812.13;;;17.11;57.46
30708;BME280;17458;48.958;8.284;2024-03-22T08:18:47;100809.59;;;17.75;56.45
30708;BME280;17458;48.958;8.284;2024-03-22T08:21:31;100813.78;;;17.97;55.44
30708;BME280;17458;48.958;8.284;2024-03-22T08:24:16;100806.19;;;17.51;55.20
30708;BME280;17458;48.958;8.284;2024-03-22T08:27:00;100806.00;;;17.75;54.89
30708;BME280;17458;48.958;8.284;2024-03-22T08:29:44;100794.63;;;17.85;54.70
30708;BME280;17458;48.958;8.284;2024-03-22T08:32:28;100794.91;;;17.94;53.55
30708;BME280;17458;48.958;8.284;2024-03-22T08:35:13;100796.41;;;17.84;55.43
30708;BME280;17458;48.958;8.284;2024-03-22T08:37:57;100792.25;;;17.95;53.80
30708;BME280;17458;48.958;8.284;2024-03-22T08:40:42;100794.56;;;18.49;52.86
30708;BME280;17458;48.958;8.284;2024-03-22T08:43:26;100791.13;;;18.91;51.81
30708;BME280;17458;48.958;8.284;2024-03-22T08:46:11;100790.25;;;18.92;51.11
30708;BME280;17458;48.958;8.284;2024-03-22T08:48:55;100792.50;;;18.73;52.90
30708;BME280;17458;48.958;8.284;2024-03-22T08:51:39;100785.69;;;18.89;51.41
30708;BME280;17458;48.958;8.284;2024-03-22T08:54:23;100779.31;;;18.86;51.99
30708;BME280;17458;48.958;8.284;2024-03-22T08:57:07;100773.00;;;18.48;51.61
30708;BME280;17458;48.958;8.284;2024-03-22T08:59:51;100777.25;;;18.39;53.48
30708;BME280;17458;48.958;8.284;2024-03-22T09:02:35;100772.91;;;18.45;52.25
30708;BME280;17458;48.958;8.284;2024-03-22T09:05:19;100777.13;;;18.33;52.33
30708;BME280;17458;48.958;8.284;2024-03-22T09:08:03;100768.78;;;18.96;51.41
30708;BME280;17458;48.958;8.284;2024-03-22T09:10:47;100767.28;;;19.09;51.12
30708;BME280;17458;48.958;8.284;2024-03-22T09:13:32;100759.03;;;19.00;49.95
30708;BME280;17458;48.958;8.284;2024-03-22T09:16:20;100771.91;;;19.15;50.58
30708;BME280;17458;48.958;8.284;2024-03-22T09:19:04;100759.47;;;18.79;50.65
30708;BME280;17458;48.958;8.284;2024-03-22T09:21:48;100757.00;;;18.52;52.57
30708;BME280;17458;48.958;8.284;2024-03-22T09:24:32;100753.41;;;18.89;51.38
30708;BME280;17458;48.958;8.284;2024-03-22T09:27:16;100753.78;;;19.06;49.88
30708;BME280;17458;48.958;8.284;2024-03-22T09:30:00;100748.31;;;19.03;49.98
30708;BME280;17458;48.958;8.284;2024-03-22T09:32:45;100747.25;;;18.95;50.24
30708;BME280;17458;48.958;8.284;2024-03-22T09:35:29;100740.59;;;18.77;50.68
30708;BME280;17458;48.958;8.284;2024-03-22T09:38:13;100745.22;;;18.85;51.15
30708;BME280;17458;48.958;8.284;2024-03-22T09:40:59;100744.34;;;18.48;51.10
30708;BME280;17458;48.958;8.284;2024-03-22T09:43:44;100735.56;;;18.57;51.51
30708;BME280;17458;48.958;8.284;2024-03-22T09:46:30;100735.66;;;18.99;51.22
30708;BME280;17458;48.958;8.284;2024-03-22T09:49:15;100729.56;;;19.06;50.82
30708;BME280;17458;48.958;8.284;2024-03-22T09:52:02;100727.69;;;19.03;50.25
30708;BME280;17458;48.958;8.284;2024-03-22T09:54:46;100729.47;;;19.03;51.35
30708;BME280;17458;48.958;8.284;2024-03-22T09:57:30;100719.28;;;18.88;51.55
30708;BME280;17458;48.958;8.284;2024-03-22T10:00:19;100719.84;;;18.73;50.79
30708;BME280;17458;48.958;8.284;2024-03-22T10:03:04;100718.34;;;19.28;50.91
30708;BME280;17458;48.958;8.284;2024-03-22T10:05:49;100718.31;;;18.85;51.05
30708;BME280;17458;48.958;8.284;2024-03-22T10:08:33;100714.25;;;19.03;50.43
30708;BME280;17458;48.958;8.284;2024-03-22T10:11:17;100717.38;;;19.25;50.24
30708;BME280;17458;48.958;8.284;2024-03-22T10:14:02;100714.84;;;19.32;49.45
30708;BME280;17458;48.958;8.284;2024-03-22T10:16:47;100719.44;;;19.38;49.33
30708;BME280;17458;48.958;8.284;2024-03-22T10:19:31;100710.13;;;19.21;49.17
30708;BME280;17458;48.958;8.284;2024-03-22T10:22:15;100701.75;;;19.07;50.46
30708;BME280;17458;48.958;8.284;2024-03-22T10:25:00;100692.44;;;19.33;48.96
30708;BME280;17458;48.958;8.284;2024-03-22T10:27:45;100686.13;;;19.33;49.23
30708;BME280;17458;48.958;8.284;2024-03-22T10:30:29;100684.75;;;19.53;49.47
30708;BME280;17458;48.958;8.284;2024-03-22T10:33:15;100684.75;;;19.53;49.05
30708;BME280;17458;48.958;8.284;2024-03-22T10:36:01;100671.34;;;19.56;48.61
30708;BME280;17458;48.958;8.284;2024-03-22T10:38:46;100673.69;;;19.39;49.21
30708;BME280;17458;48.958;8.284;2024-03-22T10:41:34;100672.88;;;19.43;48.68
30708;BME280;17458;48.958;8.284;2024-03-22T10:44:18;100662.53;;;19.63;49.43
30708;BME280;17458;48.958;8.284;2024-03-22T10:47:04;100663.16;;;19.52;49.61
30708;BME280;17458;48.958;8.284;2024-03-22T10:49:50;100658.44;;;19.40;50.04
30708;BME280;17458;48.958;8.284;2024-03-22T10:52:45;100648.28;;;19.25;49.34
30708;BME280;17458;48.958;8.284;2024-03-22T10:55:33;100646.72;;;19.36;49.22
30708;BME280;17458;48.958;8.284;2024-03-22T10:58:21;100637.47;;;19.22;49.73
30708;BME280;17458;48.958;8.284;2024-03-22T11:01:06;100632.47;;;19.43;49.15
30708;BME280;17458;48.958;8.284;2024-03-22T11:03:50;100622.31;;;19.29;50.11
30708;BME280;17458;48.958;8.284;2024-03-22T11:06:36;100625.59;;;19.58;48.81
30708;BME280;17458;48.958;8.284;2024-03-22T11:09:25;100623.19;;;19.74;48.29
30708;BME280;17458;48.958;8.284;2024-03-22T11:12:10;100611.09;;;19.50;48.65
30708;BME280;17458;48.958;8.284;2024-03-22T11:14:55;100607.66;;;19.60;48.64
30708;BME280;17458;48.958;8.284;2024-03-22T11:17:39;100598.84;;;19.70;48.31
30708;BME280;17458;48.958;8.284;2024-03-22T11:20:28;100599.47;;;20.09;48.28
30708;BME280;17458;48.958;8.284;2024-03-22T11:23:13;100596.72;;;20.03;47.44
30708;BME280;17458;48.958;8.284;2024-03-22T11:25:57;100579.69;;;20.07;46.64
30708;BME280;17458;48.958;8.284;2024-03-22T11:28:42;100580.16;;;19.79;46.86
30708;BME280;17458;48.958;8.284;2024-03-22T11:31:27;100574.00;;;19.88;46.64
30708;BME280;17458;48.958;8.284;2024-03-22T11:34:11;100568.91;;;20.06;46.66
30708;BME280;17458;48.958;8.284;2024-03-22T11:36:55;100560.09;;;20.19;46.15
30708;BME280;17458;48.958;8.284;2024-03-22T11:39:39;100555.97;;;20.44;47.09
30708;BME280;17458;48.958;8.284;2024-03-22T11:42:23;100551.31;;;20.35;46.35
30708;BME280;17458;48.958;8.284;2024-03-22T11:45:11;100551.16;;;19.63;46.73
30708;BME280;17458;48.958;8.284;2024-03-22T11:47:55;100541.53;;;19.78;47.36
30708;BME280;17458;48.958;8.284;2024-03-22T11:50:40;100539.44;;;19.61;47.74
30708;BME280;17458;48.958;8.284;2024-03-22T11:53:24;100532.41;;;19.72;46.80
30708;BME280;17458;48.958;8.284;2024-03-22T11:56:08;100527.81;;;19.66;47.53
30708;BME280;17458;48.958;8.284;2024-03-22T11:58:58;100523.81;;;19.97;46.06
30708;BME280;17458;48.958;8.284;2024-03-22T12:01:42;100528.56;;;20.13;46.37
30708;BME280;17458;48.958;8.284;2024-03-22T12:04:26;100525.06;;;20.90;45.53
30708;BME280;17458;48.958;8.284;2024-03-22T12:07:11;100521.31;;;20.77;46.62
30708;BME280;17458;48.958;8.284;2024-03-22T12:09:57;100513.38;;;20.93;44.43
30708;BME280;17458;48.958;8.284;2024-03-22T12:12:41;100508.59;;;20.67;42.89
30708;BME280;17458;48.958;8.284;2024-03-22T12:15:24;100509.44;;;20.62;41.26
30708;BME280;17458;48.958;8.284;2024-03-22T12:18:08;100504.28;;;20.83;42.53
30708;BME280;17458;48.958;8.284;2024-03-22T12:20:52;100511.59;;;20.95;41.90
30708;BME280;17458;48.958;8.284;2024-03-22T12:23:37;100495.34;;;20.88;42.32
30708;BME280;17458;48.958;8.284;2024-03-22T12:26:21;100491.91;;;21.03;41.65
30708;BME280;17458;48.958;8.284;2024-03-22T12:29:05;100491.50;;;20.67;41.53
30708;BME280;17458;48.958;8.284;2024-03-22T12:31:51;100481.00;;;20.96;41.70
30708;BME280;17458;48.958;8.284;2024-03-22T12:34:35;100472.00;;;20.95;41.46
30708;BME280;17458;48.958;8.284;2024-03-22T12:37:19;100470.16;;;20.88;42.26
30708;BME280;17458;48.958;8.284;2024-03-22T12:40:03;100463.00;;;20.96;41.20
30708;BME280;17458;48.958;8.284;2024-03-22T12:42:47;100460.31;;;20.96;40.24
30708;BME280;17458;48.958;8.284;2024-03-22T12:45:31;100466.88;;;20.39;40.13
30708;BME280;17458;48.958;8.284;2024-03-22T12:48:16;100459.09;;;20.65;41.03
30708;BME280;17458;48.958;8.284;2024-03-22T12:51:00;100457.78;;;21.14;40.87
30708;BME280;17458;48.958;8.284;2024-03-22T12:53:44;100452.50;;;21.25;40.98
30708;BME280;17458;48.958;8.284;2024-03-22T12:56:28;100451.56;;;21.20;41.63
30708;BME280;17458;48.958;8.284;2024-03-22T12:59:12;100446.97;;;21.13;38.74
30708;BME280;17458;48.958;8.284;2024-03-22T13:01:56;100447.06;;;20.36;40.51
30708;BME280;17458;48.958;8.284;2024-03-22T13:04:40;100450.81;;;20.47;41.26
30708;BME280;17458;48.958;8.284;2024-03-22T13:07:24;100445.50;;;20.55;41.18
30708;BME280;17458;48.958;8.284;2024-03-22T13:10:08;100440.81;;;20.40;41.05
30708;BME280;17458;48.958;8.284;2024-03-22T13:12:52;100431.50;;;20.15;41.61
30708;BME280;17458;48.958;8.284;2024-03-22T13:15:36;100427.25;;;20.35;41.99
30708;BME280;17458;48.958;8.284;2024-03-22T13:18:21;100425.41;;;20.31;42.07
30708;BME280;17458;48.958;8.284;2024-03-22T13:21:05;100421.06;;;20.41;41.56
30708;BME280;17458;48.958;8.284;2024-03-22T13:23:49;100413.50;;;20.14;42.13
30708;BME280;17458;48.958;8.284;2024-03-22T13:26:33;100411.03;;;20.32;42.78
30708;BME280;17458;48.958;8.284;2024-03-22T13:29:17;100406.13;;;19.99;43.56
30708;BME280;17458;48.958;8.284;2024-03-22T13:32:01;100403.97;;;19.71;43.50
30708;BME280;17458;48.958;8.284;2024-03-22T13:34:45;100397.06;;;19.94;43.85
30708;BME280;17458;48.958;8.284;2024-03-22T13:37:29;100393.13;;;19.68;43.08
30708;BME280;17458;48.958;8.284;2024-03-22T13:40:12;100386.91;;;19.72;43.62
30708;BME280;17458;48.958;8.284;2024-03-22T13:42:56;100379.81;;;19.80;43.50
30708;BME280;17458;48.958;8.284;2024-03-22T13:45:42;100381.56;;;19.75;44.20
30708;BME280;17458;48.958;8.284;2024-03-22T13:48:27;100379.59;;;19.62;43.97
30708;BME280;17458;48.958;8.284;2024-03-22T13:51:11;100378.03;;;19.77;44.59
30708;BME280;17458;48.958;8.284;2024-03-22T13:53:54;100368.22;;;19.86;43.98
30708;BME280;17458;48.958;8.284;2024-03-22T13:56:38;100363.06;;;20.02;43.47
30708;BME280;17458;48.958;8.284;2024-03-22T13:59:22;100354.66;;;19.78;43.16
30708;BME280;17458;48.958;8.284;2024-03-22T14:02:06;100350.16;;;19.77;45.27
30708;BME280;17458;48.958;8.284;2024-03-22T14:04:53;100341.22;;;19.82;45.21
30708;BME280;17458;48.958;8.284;2024-03-22T14:07:37;100332.38;;;19.91;43.83
30708;BME280;17458;48.958;8.284;2024-03-22T14:10:24;100331.34;;;19.81;44.10
30708;BME280;17458;48.958;8.284;2024-03-22T14:13:10;100326.19;;;20.01;44.90
30708;BME280;17458;48.958;8.284;2024-03-22T14:15:54;100319.97;;;20.05;44.37
30708;BME280;17458;48.958;8.284;2024-03-22T14:18:38;100307.81;;;19.68;44.63